Time;durP1;ratioP1;P1;durP2;ratioP2;P2;SDS_P1;SDS_P2;PMS_P1;PMS_P2;Temp;Humidity;BMP_temperature;BMP_pressure;BME280_temperature;BME280_humidity;BME280_pressure;Samples;Min_cycle;Max_cycle;Signal;HPM_P1;HPM_P2
2024/01/02 00:02:21;;;;;;;12.20;4.70;;;5.80;99.90;;;;;;4981628;28;21012;-64
2024/01/02 00:04:49;;;;;;;10.40;4.53;;;5.80;99.90;;;;;;4981124;28;20988;-64
2024/01/02 00:07:17;;;;;;;7.57;4.53;;;5.80;99.90;;;;;;4981188;28;20589;-64
2024/01/02 00:09:47;;;;;;;9.73;4.33;;;5.80;99.90;;;;;;4978334;28;20543;-64
2024/01/02 00:12:15;;;;;;;14.53;5.10;;;5.80;99.90;;;;;;4982165;28;20560;-64
2024/01/02 00:14:43;;;;;;;9.93;4.70;;;5.70;99.90;;;;;;4981628;28;21086;-64
2024/01/02 00:17:11;;;;;;;12.17;5.17;;;5.70;99.90;;;;;;4980681;28;20497;-64
2024/01/02 00:19:39;;;;;;;7.43;4.10;;;5.80;99.90;;;;;;4979438;28;20485;-64
2024/01/02 00:22:07;;;;;;;9.80;4.60;;;5.70;99.90;;;;;;4980539;28;21197;-65
2024/01/02 00:24:35;;;;;;;9.93;4.40;;;5.70;99.90;;;;;;4981269;28;20569;-64
2024/01/02 00:27:05;;;;;;;15.80;5.53;;;5.70;99.90;;;;;;4980459;28;20540;-64
2024/01/02 00:29:33;;;;;;;11.77;6.23;;;5.70;99.90;;;;;;4980583;28;20477;-64
2024/01/02 00:32:01;;;;;;;11.00;4.73;;;5.70;99.90;;;;;;4981576;28;20477;-64
2024/01/02 00:34:29;;;;;;;9.80;5.40;;;5.70;99.90;;;;;;4978084;28;20477;-64
2024/01/02 00:36:58;;;;;;;14.70;5.50;;;5.70;99.90;;;;;;4979747;28;21025;-65
2024/01/02 00:39:26;;;;;;;15.73;7.83;;;5.70;99.90;;;;;;4979215;28;20567;-64
2024/01/02 00:41:53;;;;;;;9.60;4.70;;;5.70;99.90;;;;;;4981542;28;20864;-63
2024/01/02 00:44:23;;;;;;;8.63;4.90;;;5.70;99.90;;;;;;4973755;28;20497;-64
2024/01/02 00:46:51;;;;;;;10.40;5.60;;;5.70;99.90;;;;;;4981171;28;20493;-64
2024/01/02 00:49:19;;;;;;;15.93;5.60;;;5.60;99.90;;;;;;4980334;28;20500;-64
2024/01/02 00:51:47;;;;;;;12.47;5.37;;;5.70;99.90;;;;;;4973719;28;20545;-64
2024/01/02 00:54:15;;;;;;;12.27;5.70;;;5.60;99.90;;;;;;4979595;28;21049;-64
2024/01/02 00:56:43;;;;;;;12.47;4.97;;;5.60;99.90;;;;;;4983059;28;21221;-64
2024/01/02 00:59:12;;;;;;;12.90;5.70;;;5.70;99.90;;;;;;4984152;28;20555;-64
2024/01/02 01:01:42;;;;;;;9.13;5.10;;;5.70;99.90;;;;;;4976214;28;20473;-64
2024/01/02 01:04:10;;;;;;;11.73;6.40;;;5.60;99.90;;;;;;4985068;28;20556;-64
2024/01/02 01:06:38;;;;;;;8.80;5.37;;;5.60;99.90;;;;;;4984495;28;20550;-64
2024/01/02 01:09:06;;;;;;;9.93;5.33;;;5.60;99.90;;;;;;4983650;28;20578;-64
2024/01/02 01:11:34;;;;;;;11.47;5.93;;;5.60;99.90;;;;;;4983361;28;20489;-64
2024/01/02 01:14:02;;;;;;;10.70;5.50;;;5.60;99.90;;;;;;4984941;28;20677;-64
2024/01/02 01:16:30;;;;;;;9.77;5.47;;;5.60;99.90;;;;;;4984390;28;20600;-64
2024/01/02 01:18:59;;;;;;;10.80;4.90;;;5.60;99.90;;;;;;4982575;28;20491;-64
2024/01/02 01:21:27;;;;;;;8.90;5.00;;;5.60;99.90;;;;;;4984193;28;20970;-64
2024/01/02 01:23:55;;;;;;;16.77;5.17;;;5.60;99.90;;;;;;4983819;28;21007;-64
2024/01/02 01:26:23;;;;;;;10.80;5.33;;;5.60;99.90;;;;;;4983803;28;21118;-64
2024/01/02 01:28:51;;;;;;;8.57;5.00;;;5.60;99.90;;;;;;4982599;28;20481;-64
2024/01/02 01:31:22;;;;;;;11.30;5.10;;;5.70;99.90;;;;;;4981308;28;20473;-64
2024/01/02 01:33:50;;;;;;;8.53;5.27;;;5.70;99.90;;;;;;4984243;28;20554;-64
2024/01/02 01:36:20;;;;;;;9.50;4.80;;;5.70;99.90;;;;;;4981126;28;20525;-64
2024/01/02 01:38:48;;;;;;;10.77;5.10;;;5.60;99.90;;;;;;4984364;28;20580;-64
2024/01/02 01:41:16;;;;;;;10.93;4.70;;;5.60;99.90;;;;;;4983546;28;20480;-64
2024/01/02 01:43:44;;;;;;;10.67;5.20;;;5.60;99.90;;;;;;4983274;28;20468;-64
2024/01/02 01:46:12;;;;;;;11.90;4.53;;;5.60;99.90;;;;;;4981816;28;20576;-64
2024/01/02 01:48:40;;;;;;;11.13;4.50;;;5.60;99.90;;;;;;4983565;28;20481;-64
2024/01/02 01:51:09;;;;;;;9.73;4.80;;;5.50;99.90;;;;;;4984108;28;20878;-64
2024/01/02 01:53:39;;;;;;;9.43;5.10;;;5.50;99.90;;;;;;4983413;28;20497;-64
2024/01/02 01:56:08;;;;;;;12.40;5.00;;;5.50;99.90;;;;;;4982808;28;20493;-63
2024/01/02 01:58:36;;;;;;;16.67;6.20;;;5.50;99.90;;;;;;4982771;28;21048;-64
2024/01/02 02:01:04;;;;;;;12.77;5.00;;;5.50;99.90;;;;;;4983157;28;20509;-64
2024/01/02 02:03:33;;;;;;;8.70;4.40;;;5.50;99.90;;;;;;4981830;28;20564;-64
2024/01/02 02:06:02;;;;;;;8.50;4.30;;;5.40;99.90;;;;;;4983069;28;20980;-64
2024/01/02 02:08:30;;;;;;;9.00;4.70;;;5.40;99.90;;;;;;4982314;28;20576;-64
2024/01/02 02:10:59;;;;;;;8.00;4.00;;;5.40;99.90;;;;;;4984547;28;21077;-64
2024/01/02 02:13:27;;;;;;;15.47;4.87;;;5.40;99.90;;;;;;4980162;28;20504;-64
2024/01/02 02:15:58;;;;;;;10.67;4.20;;;5.40;99.90;;;;;;4982845;28;20492;-64
2024/01/02 02:18:26;;;;;;;7.30;4.70;;;5.40;99.90;;;;;;4982663;28;20580;-64
2024/01/02 02:20:55;;;;;;;10.30;4.50;;;5.40;99.90;;;;;;4982054;28;20540;-64
2024/01/02 02:23:24;;;;;;;11.50;4.90;;;5.30;99.90;;;;;;4984086;28;20551;-64
2024/01/02 02:25:52;;;;;;;10.17;4.80;;;5.30;99.90;;;;;;4982504;28;20481;-64
2024/01/02 02:28:20;;;;;;;6.63;4.30;;;5.30;99.90;;;;;;4982907;28;20483;-64
2024/01/02 02:30:48;;;;;;;10.37;4.93;;;5.30;99.90;;;;;;4979050;28;20474;-64
2024/01/02 02:33:16;;;;;;;10.83;5.10;;;5.30;99.90;;;;;;4982376;28;20867;-64
2024/01/02 02:35:45;;;;;;;11.87;4.20;;;5.30;99.90;;;;;;4982153;28;20687;-63
2024/01/02 02:38:13;;;;;;;9.20;4.23;;;5.20;99.90;;;;;;4976493;28;20552;-64
2024/01/02 02:40:42;;;;;;;9.43;4.30;;;5.20;99.90;;;;;;4983297;28;20956;-64
2024/01/02 02:43:10;;;;;;;6.60;4.37;;;5.20;99.90;;;;;;4982367;28;20473;-64
2024/01/02 02:45:38;;;;;;;10.33;5.10;;;5.20;99.90;;;;;;4980489;28;20501;-64
2024/01/02 02:48:07;;;;;;;9.73;4.30;;;5.20;99.90;;;;;;4983134;28;20993;-64
2024/01/02 02:50:35;;;;;;;9.30;4.90;;;5.20;99.90;;;;;;4982575;28;20465;-64
2024/01/02 02:53:04;;;;;;;10.53;4.70;;;5.20;99.90;;;;;;4982411;28;20470;-64
2024/01/02 02:55:32;;;;;;;10.07;4.47;;;5.20;99.90;;;;;;4980266;28;20479;-64
2024/01/02 02:58:01;;;;;;;7.70;5.07;;;5.10;99.90;;;;;;4982454;28;20532;-64
2024/01/02 03:00:29;;;;;;;11.17;5.10;;;5.10;99.90;;;;;;4983332;28;20581;-64
2024/01/02 03:02:57;;;;;;;11.00;5.10;;;5.10;99.90;;;;;;4979461;28;20863;-63
2024/01/02 03:05:25;;;;;;;12.23;4.83;;;5.10;99.90;;;;;;4982909;28;21017;-64
2024/01/02 03:07:53;;;;;;;9.80;5.50;;;5.10;99.90;;;;;;4981329;28;21010;-64
2024/01/02 03:10:21;;;;;;;9.73;5.07;;;5.10;99.90;;;;;;4982578;28;20473;-64
2024/01/02 03:12:49;;;;;;;8.03;4.40;;;5.10;99.90;;;;;;4981338;28;20477;-63
2024/01/02 03:15:19;;;;;;;8.03;4.83;;;5.00;99.90;;;;;;4979171;28;20498;-64
2024/01/02 03:17:47;;;;;;;9.73;5.37;;;5.00;99.90;;;;;;4980757;28;20501;-64
2024/01/02 03:20:16;;;;;;;12.80;5.40;;;5.00;99.90;;;;;;4982033;28;20831;-64
2024/01/02 03:22:44;;;;;;;9.70;4.60;;;5.00;99.90;;;;;;4982386;28;20466;-64
2024/01/02 03:25:12;;;;;;;9.43;5.17;;;5.00;99.90;;;;;;4982141;28;20922;-64
2024/01/02 03:27:40;;;;;;;8.63;4.80;;;5.00;99.90;;;;;;4978706;28;21081;-64
2024/01/02 03:30:08;;;;;;;7.17;4.43;;;5.00;99.90;;;;;;4982103;28;20497;-63
2024/01/02 03:32:38;;;;;;;12.70;5.27;;;5.00;99.90;;;;;;4981503;28;20502;-64
2024/01/02 03:35:07;;;;;;;13.53;5.33;;;5.00;99.90;;;;;;4981574;28;20484;-64
2024/01/02 03:37:35;;;;;;;8.17;5.00;;;5.00;99.90;;;;;;4981415;28;20493;-64
2024/01/02 03:40:04;;;;;;;10.50;4.87;;;5.00;99.90;;;;;;4980978;28;20500;-64
2024/01/02 03:42:32;;;;;;;8.53;5.13;;;4.90;99.90;;;;;;4981403;28;20561;-63
2024/01/02 03:45:00;;;;;;;9.17;5.17;;;4.90;99.90;;;;;;4980028;28;20503;-64
2024/01/02 03:47:28;;;;;;;8.23;5.57;;;4.90;99.90;;;;;;4980999;28;20572;-64
2024/01/02 03:49:57;;;;;;;10.57;4.27;;;4.90;99.90;;;;;;4980921;28;20514;-63
2024/01/02 03:52:26;;;;;;;10.50;4.97;;;4.90;99.90;;;;;;4980952;28;20474;-63
2024/01/02 03:54:54;;;;;;;14.50;5.97;;;4.90;99.90;;;;;;4981256;28;20509;-64
2024/01/02 03:57:22;;;;;;;13.10;5.50;;;4.90;99.90;;;;;;4978512;28;20529;-64
2024/01/02 03:59:50;;;;;;;11.17;5.40;;;4.90;99.90;;;;;;4980953;28;20581;-64
2024/01/02 04:02:18;;;;;;;11.33;4.80;;;4.80;99.90;;;;;;4980739;28;20502;-64
2024/01/02 04:04:46;;;;;;;7.30;4.90;;;4.80;99.90;;;;;;4980820;28;20476;-63
2024/01/02 04:07:15;;;;;;;9.17;4.80;;;4.80;99.90;;;;;;4981399;28;20527;-64
2024/01/02 04:09:43;;;;;;;11.17;5.07;;;4.80;99.90;;;;;;4978140;28;20486;-64
2024/01/02 04:12:11;;;;;;;9.93;5.00;;;4.90;99.90;;;;;;4981711;28;20560;-63
2024/01/02 04:14:39;;;;;;;10.67;4.67;;;4.80;99.90;;;;;;4981242;28;20494;-64
2024/01/02 04:17:07;;;;;;;14.13;6.00;;;4.90;99.90;;;;;;4981389;28;21006;-64
2024/01/02 04:19:35;;;;;;;8.80;4.50;;;4.80;99.90;;;;;;4980445;28;20477;-64
2024/01/02 04:22:04;;;;;;;8.17;4.40;;;4.80;99.90;;;;;;4980970;28;20480;-64
2024/01/02 04:24:33;;;;;;;10.17;4.60;;;4.80;99.90;;;;;;4981341;28;20481;-64
2024/01/02 04:27:01;;;;;;;9.37;5.10;;;4.80;99.90;;;;;;4980484;28;21037;-64
2024/01/02 04:29:29;;;;;;;11.60;4.53;;;4.80;99.90;;;;;;4980202;28;20483;-67
2024/01/02 04:32:00;;;;;;;5.73;4.17;;;4.80;99.90;;;;;;4981220;28;20846;-64
2024/01/02 04:34:28;;;;;;;14.03;4.90;;;4.80;99.90;;;;;;4980286;28;20526;-64
2024/01/02 04:36:56;;;;;;;9.20;4.20;;;4.80;99.90;;;;;;4979139;28;20987;-64
2024/01/02 04:39:24;;;;;;;9.97;5.13;;;4.80;99.90;;;;;;4980841;28;20482;-64
2024/01/02 04:41:53;;;;;;;7.70;4.33;;;4.80;99.90;;;;;;4982011;28;20553;-63
2024/01/02 04:44:21;;;;;;;10.30;5.53;;;4.80;99.90;;;;;;4981375;28;20559;-64
2024/01/02 04:46:49;;;;;;;9.40;4.33;;;4.80;99.90;;;;;;4980221;28;20493;-64
2024/01/02 04:49:18;;;;;;;9.23;4.17;;;4.80;99.90;;;;;;4979789;28;20521;-64
2024/01/02 04:51:46;;;;;;;9.37;4.50;;;4.80;99.90;;;;;;4980945;28;20480;-64
2024/01/02 04:54:14;;;;;;;11.17;4.73;;;4.80;99.90;;;;;;4977305;28;20499;-64
2024/01/02 04:56:42;;;;;;;7.43;4.20;;;4.80;99.90;;;;;;4981188;28;20563;-64
2024/01/02 04:59:11;;;;;;;10.57;4.77;;;4.90;99.90;;;;;;4980778;28;20473;-64
2024/01/02 05:01:39;;;;;;;8.90;4.33;;;4.80;99.90;;;;;;4978056;28;20477;-63
2024/01/02 05:04:07;;;;;;;6.80;4.30;;;4.90;99.90;;;;;;4981660;28;20477;-64
2024/01/02 05:06:35;;;;;;;10.40;3.80;;;4.90;99.90;;;;;;4980050;28;20470;-64
2024/01/02 05:09:03;;;;;;;9.13;3.70;;;4.90;99.90;;;;;;4979755;28;20641;-64
2024/01/02 05:11:36;;;;;;;8.27;3.57;;;4.90;99.90;;;;;;4978414;28;20560;-64
2024/01/02 05:14:05;;;;;;;9.63;4.03;;;4.90;99.90;;;;;;4980478;28;20470;-64
2024/01/02 05:16:34;;;;;;;7.70;3.80;;;4.90;99.90;;;;;;4979473;28;20473;-64
2024/01/02 05:19:02;;;;;;;10.23;4.83;;;4.90;99.90;;;;;;4980968;28;20493;-64
2024/01/02 05:21:31;;;;;;;6.03;4.07;;;4.90;99.90;;;;;;4979749;28;20519;-64
2024/01/02 05:23:59;;;;;;;8.37;3.53;;;4.90;99.90;;;;;;4979982;28;20572;-64
2024/01/02 05:26:27;;;;;;;7.53;3.67;;;4.90;99.90;;;;;;4978858;28;21036;-64
2024/01/02 05:28:55;;;;;;;6.23;3.90;;;4.90;99.90;;;;;;4979072;28;20489;-64
2024/01/02 05:31:23;;;;;;;10.77;3.60;;;4.90;99.90;;;;;;4980352;28;21162;-64
2024/01/02 05:33:52;;;;;;;8.10;3.30;;;4.90;99.90;;;;;;4981031;28;20991;-64
2024/01/02 05:36:20;;;;;;;7.10;3.57;;;5.00;99.90;;;;;;4977950;28;20974;-64
2024/01/02 05:38:48;;;;;;;5.73;3.20;;;5.00;99.90;;;;;;4980079;28;20485;-64
2024/01/02 05:41:16;;;;;;;6.37;3.17;;;5.00;99.90;;;;;;4983402;28;20476;-64
2024/01/02 05:43:44;;;;;;;10.50;3.37;;;5.00;99.90;;;;;;4984283;28;20497;-64
2024/01/02 05:46:12;;;;;;;9.30;3.20;;;5.00;99.90;;;;;;4983173;28;20477;-64
2024/01/02 05:48:40;;;;;;;10.20;3.70;;;5.00;99.90;;;;;;4983935;28;20493;-64
2024/01/02 05:51:10;;;;;;;6.43;3.23;;;5.10;99.90;;;;;;4984136;28;20465;-64
2024/01/02 05:53:38;;;;;;;5.80;3.00;;;5.10;99.90;;;;;;4983788;28;20468;-64
2024/01/02 05:56:06;;;;;;;6.33;3.63;;;5.10;99.90;;;;;;4983224;28;20481;-64
2024/01/02 05:58:34;;;;;;;8.37;3.90;;;5.10;99.90;;;;;;4982418;28;20496;-64
2024/01/02 06:01:02;;;;;;;7.70;3.77;;;5.10;99.90;;;;;;4984358;28;20497;-64
2024/01/02 06:03:30;;;;;;;7.07;3.10;;;5.10;99.90;;;;;;4980605;28;20477;-64
2024/01/02 06:05:58;;;;;;;7.80;3.47;;;5.10;99.90;;;;;;4983134;28;20897;-64
2024/01/02 06:08:27;;;;;;;7.50;2.40;;;5.10;99.90;;;;;;4983128;28;20529;-64
2024/01/02 06:10:55;;;;;;;6.47;3.47;;;5.20;99.90;;;;;;4983554;28;20561;-63
2024/01/02 06:13:24;;;;;;;7.27;2.90;;;5.20;99.90;;;;;;4982340;28;20866;-64
2024/01/02 06:15:51;;;;;;;5.07;2.67;;;5.20;99.90;;;;;;4982134;28;21032;-63
2024/01/02 06:18:19;;;;;;;9.93;3.60;;;5.20;99.90;;;;;;4982021;28;20565;-63
2024/01/02 06:20:48;;;;;;;8.70;3.83;;;5.20;99.90;;;;;;4983439;28;20480;-63
2024/01/02 06:23:16;;;;;;;6.50;2.93;;;5.20;99.90;;;;;;4983292;28;20472;-64
2024/01/02 06:25:45;;;;;;;6.70;3.07;;;5.20;99.90;;;;;;4981923;28;20979;-64
2024/01/02 06:28:13;;;;;;;5.47;2.97;;;5.20;99.90;;;;;;4982311;28;20488;-64
2024/01/02 06:30:41;;;;;;;7.17;3.27;;;5.20;99.90;;;;;;4981961;28;20535;-63
2024/01/02 06:33:09;;;;;;;6.40;3.00;;;5.20;99.90;;;;;;4982193;28;20477;-64
2024/01/02 06:35:37;;;;;;;6.80;2.07;;;5.20;99.90;;;;;;4979958;28;20979;-64
2024/01/02 06:38:05;;;;;;;6.93;2.70;;;5.20;99.90;;;;;;4981407;28;20491;-64
2024/01/02 06:40:34;;;;;;;6.57;2.70;;;5.20;99.90;;;;;;4979559;28;21021;-64
2024/01/02 06:43:03;;;;;;;6.73;2.77;;;5.20;99.90;;;;;;4983197;28;20900;-64
2024/01/02 06:45:31;;;;;;;4.00;2.73;;;5.20;99.90;;;;;;4979376;28;20584;-64
2024/01/02 06:47:59;;;;;;;5.90;3.00;;;5.20;99.90;;;;;;4980511;28;20521;-64
2024/01/02 06:50:28;;;;;;;10.97;3.30;;;5.20;99.90;;;;;;4979587;28;20561;-64
2024/01/02 06:52:56;;;;;;;10.73;2.57;;;5.20;99.90;;;;;;4981829;28;20473;-64
2024/01/02 06:55:24;;;;;;;6.27;2.83;;;5.20;99.90;;;;;;4980602;28;20481;-63
2024/01/02 06:57:52;;;;;;;5.80;2.40;;;5.30;99.90;;;;;;4981338;28;20521;-64
2024/01/02 07:00:21;;;;;;;7.00;2.50;;;5.30;99.90;;;;;;4980151;28;20545;-63
2024/01/02 07:02:49;;;;;;;9.87;3.13;;;5.30;99.90;;;;;;4980436;28;20509;-64
2024/01/02 07:05:17;;;;;;;6.23;4.43;;;5.30;99.90;;;;;;4981557;28;20470;-63
2024/01/02 07:07:50;;;;;;;7.97;4.00;;;5.40;99.90;;;;;;4979549;28;20576;-64
2024/01/02 07:10:18;;;;;;;7.80;2.70;;;5.40;99.90;;;;;;4980639;28;20863;-64
2024/01/02 07:12:47;;;;;;;9.23;2.80;;;5.40;99.90;;;;;;4980309;28;20973;-64
2024/01/02 07:15:16;;;;;;;8.77;2.77;;;5.40;99.90;;;;;;4981360;28;20473;-64
2024/01/02 07:17:46;;;;;;;9.10;3.00;;;5.40;99.90;;;;;;4979199;28;21026;-64
2024/01/02 07:20:15;;;;;;;10.30;2.97;;;5.40;99.90;;;;;;4981006;28;20491;-64
2024/01/02 07:22:43;;;;;;;5.37;2.53;;;5.40;99.90;;;;;;4979881;28;20558;-64
2024/01/02 07:25:12;;;;;;;4.83;2.70;;;5.40;99.90;;;;;;4980891;28;20971;-64
2024/01/02 07:27:40;;;;;;;5.57;2.50;;;5.40;99.90;;;;;;4942872;28;1116080;-64
2024/01/02 07:30:08;;;;;;;7.67;2.93;;;5.40;99.90;;;;;;4981439;28;20234;-64
2024/01/02 07:32:36;;;;;;;8.40;2.80;;;5.40;99.90;;;;;;4982145;28;20505;-64
2024/01/02 07:35:07;;;;;;;8.77;2.73;;;5.40;99.90;;;;;;4981744;28;20473;-64
2024/01/02 07:37:35;;;;;;;6.17;2.70;;;5.40;99.90;;;;;;4983270;28;20498;-64
2024/01/02 07:40:03;;;;;;;3.93;2.47;;;5.40;99.90;;;;;;4980490;28;20481;-64
2024/01/02 07:42:31;;;;;;;4.93;3.07;;;5.40;99.90;;;;;;4979152;28;20511;-64
2024/01/02 07:44:59;;;;;;;5.73;2.40;;;5.40;99.90;;;;;;4981058;28;20552;-64
2024/01/02 07:47:27;;;;;;;4.77;2.73;;;5.40;99.90;;;;;;4980888;28;20573;-64
2024/01/02 07:49:57;;;;;;;6.30;2.80;;;5.40;99.90;;;;;;4980438;28;20480;-64
2024/01/02 07:52:26;;;;;;;4.27;2.33;;;5.40;99.90;;;;;;4982633;28;20496;-64
2024/01/02 07:54:54;;;;;;;6.87;2.50;;;5.40;99.90;;;;;;4979584;28;20532;-64
2024/01/02 07:57:22;;;;;;;6.37;2.33;;;5.40;99.90;;;;;;4980729;28;21002;-64
2024/01/02 07:59:50;;;;;;;3.90;2.40;;;5.40;99.90;;;;;;4979997;28;20583;-64
2024/01/02 08:02:18;;;;;;;4.40;2.47;;;5.40;99.90;;;;;;4979886;28;20478;-64
2024/01/02 08:04:46;;;;;;;8.90;2.20;;;5.40;99.90;;;;;;4980128;28;20967;-64
2024/01/02 08:07:14;;;;;;;7.93;3.33;;;5.40;99.90;;;;;;4981614;28;20539;-64
2024/01/02 08:09:44;;;;;;;6.10;2.60;;;5.40;99.90;;;;;;4981039;28;20979;-64
2024/01/02 08:12:12;;;;;;;8.20;2.40;;;5.40;99.90;;;;;;4979746;28;20502;-64
2024/01/02 08:14:40;;;;;;;7.00;3.07;;;5.40;99.90;;;;;;4980146;28;21016;-64
2024/01/02 08:17:09;;;;;;;6.17;2.57;;;5.40;99.90;;;;;;4980666;28;20500;-64
2024/01/02 08:19:37;;;;;;;4.67;2.67;;;5.40;99.90;;;;;;4977736;28;20522;-64
2024/01/02 08:22:05;;;;;;;6.97;2.33;;;5.40;99.90;;;;;;4981460;28;20470;-64
2024/01/02 08:24:33;;;;;;;7.40;2.97;;;5.40;99.90;;;;;;4980466;28;20484;-64
2024/01/02 08:27:03;;;;;;;5.17;2.60;;;5.40;99.90;;;;;;4981454;28;20517;-64
2024/01/02 08:29:31;;;;;;;3.00;2.27;;;5.40;99.90;;;;;;4978959;28;21061;-64
2024/01/02 08:32:00;;;;;;;5.47;2.60;;;5.40;99.90;;;;;;4981562;28;20477;-63
2024/01/02 08:34:28;;;;;;;5.53;2.57;;;5.40;99.90;;;;;;4981086;28;20954;-64
2024/01/02 08:36:56;;;;;;;7.07;2.60;;;5.40;99.90;;;;;;4980068;28;20513;-64
2024/01/02 08:39:24;;;;;;;5.80;2.43;;;5.40;99.90;;;;;;4980010;28;20589;-64
2024/01/02 08:41:52;;;;;;;4.17;2.20;;;5.40;99.90;;;;;;4982218;28;20561;-64
2024/01/02 08:44:22;;;;;;;3.97;2.00;;;5.40;99.90;;;;;;4979821;28;20904;-64
2024/01/02 08:46:50;;;;;;;3.97;2.40;;;5.40;99.90;;;;;;4980683;28;20474;-64
2024/01/02 08:49:18;;;;;;;3.80;2.20;;;5.40;99.90;;;;;;4978734;28;20497;-63
2024/01/02 08:51:46;;;;;;;4.27;1.97;;;5.40;99.90;;;;;;4980964;28;20476;-64
2024/01/02 08:54:15;;;;;;;9.37;2.57;;;5.40;99.90;;;;;;4980990;28;20481;-64
2024/01/02 08:56:42;;;;;;;5.63;2.47;;;5.40;99.90;;;;;;4979961;28;20501;-66
2024/01/02 08:59:10;;;;;;;5.80;2.60;;;5.40;99.90;;;;;;4979794;28;20477;-64
2024/01/02 09:01:40;;;;;;;3.27;2.20;;;5.40;99.90;;;;;;4980191;28;20968;-66
2024/01/02 09:04:08;;;;;;;7.37;3.00;;;5.40;99.90;;;;;;4979620;28;20473;-66
2024/01/02 09:06:36;;;;;;;3.07;2.33;;;5.40;99.90;;;;;;4980061;28;20488;-64
2024/01/02 09:09:05;;;;;;;3.80;2.30;;;5.40;99.90;;;;;;4980448;28;20478;-64
2024/01/02 09:11:34;;;;;;;3.20;2.20;;;5.40;99.90;;;;;;4980201;28;20564;-64
2024/01/02 09:14:02;;;;;;;4.10;2.27;;;5.40;99.90;;;;;;4980163;28;20981;-64
2024/01/02 09:16:31;;;;;;;2.50;2.30;;;5.40;99.90;;;;;;4983752;28;20577;-66
2024/01/02 09:19:01;;;;;;;3.93;2.30;;;5.40;99.90;;;;;;4983711;28;20572;-64
2024/01/02 09:21:30;;;;;;;5.63;2.70;;;5.40;99.90;;;;;;4981961;28;20497;-63
2024/01/02 09:23:58;;;;;;;2.70;2.30;;;5.40;99.90;;;;;;4984956;28;20532;-64
2024/01/02 09:26:27;;;;;;;3.47;1.80;;;5.50;99.90;;;;;;4984015;28;20513;-64
2024/01/02 09:28:55;;;;;;;4.83;3.07;;;5.50;99.90;;;;;;4983178;28;20489;-64
2024/01/02 09:31:25;;;;;;;4.93;1.93;;;5.50;99.90;;;;;;4983163;28;20493;-64
2024/01/02 09:33:53;;;;;;;4.03;2.37;;;5.50;99.90;;;;;;4983506;28;20856;-64
2024/01/02 09:36:23;;;;;;;4.00;2.00;;;5.50;99.90;;;;;;4985293;28;21124;-64
2024/01/02 09:38:51;;;;;;;4.50;2.10;;;5.50;99.90;;;;;;4982887;28;20547;-64
2024/01/02 09:41:40;;;;;;;2.60;2.10;;;5.50;99.90;;;;;;4984224;28;20499;-64
2024/01/02 09:44:23;;;;;;;3.17;2.30;;;5.50;99.90;;;;;;4952917;28;20471;-64
2024/01/02 09:47:04;;;;;;;3.77;2.40;;;5.50;99.90;;;;;;4984315;28;22272;-64
2024/01/02 09:49:40;;;;;;;3.20;2.43;;;5.50;99.90;;;;;;4984128;28;20897;-64
2024/01/02 09:52:42;;;;;;;3.97;2.20;;;5.60;99.90;;;;;;4984376;28;20480;-64
2024/01/02 09:55:19;;;;;;;2.40;1.70;;;5.50;99.90;;;;;;4957390;28;20477;-64
2024/01/02 09:57:53;;;;;;;3.63;2.07;;;5.60;99.90;;;;;;4983257;28;20497;-64
2024/01/02 10:00:30;;;;;;;3.50;2.07;;;5.50;99.90;;;;;;4983389;28;20799;-64
2024/01/02 10:03:19;;;;;;;3.10;2.10;;;5.50;99.90;;;;;;4982990;28;21007;-64
2024/01/02 10:06:02;;;;;;;2.30;2.00;;;5.60;99.90;;;;;;4983211;28;20500;-64
2024/01/02 10:08:51;;;;;;;5.70;2.50;;;5.60;99.90;;;;;;4981255;28;20497;-63
2024/01/02 10:11:31;;;;;;;4.03;2.50;;;5.60;99.90;;;;;;4983293;28;20473;-64
2024/01/02 10:14:02;;;;;;;2.53;2.30;;;5.60;99.90;;;;;;4981718;28;20848;-63
2024/01/02 10:16:38;;;;;;;2.63;2.07;;;5.60;99.90;;;;;;4983183;28;20477;-64
2024/01/02 10:19:19;;;;;;;3.47;2.17;;;5.60;99.90;;;;;;4982569;28;20481;-64
2024/01/02 10:22:05;;;;;;;4.10;2.80;;;5.60;99.90;;;;;;4983266;28;20515;-64
2024/01/02 10:24:44;;;;;;;5.43;2.47;;;5.60;99.90;;;;;;4982222;28;20489;-64
2024/01/02 10:27:21;;;;;;;4.80;2.40;;;5.60;99.90;;;;;;4982530;28;20957;-63
2024/01/02 10:30:06;;;;;;;3.77;2.47;;;5.60;99.90;;;;;;4981299;28;20473;-64
2024/01/02 10:32:46;;;;;;;3.13;2.80;;;5.60;99.90;;;;;;4982699;28;20665;-64
2024/01/02 10:35:21;;;;;;;3.70;2.97;;;5.60;99.90;;;;;;4983126;28;20476;-63
2024/01/02 10:38:07;;;;;;;3.10;2.43;;;5.60;99.90;;;;;;4984630;28;20580;-64
2024/01/02 10:40:41;;;;;;;4.20;2.30;;;5.60;99.90;;;;;;4982129;28;20502;-64
2024/01/02 10:43:27;;;;;;;4.20;2.80;;;5.60;99.90;;;;;;4983475;28;20563;-64
2024/01/02 10:46:04;;;;;;;3.13;2.70;;;5.60;99.90;;;;;;4982270;28;20560;-64
2024/01/02 10:48:49;;;;;;;2.90;2.30;;;5.60;99.90;;;;;;4981614;28;20496;-64
2024/01/02 10:51:23;;;;;;;3.23;2.80;;;5.60;99.90;;;;;;4983430;28;20469;-64
2024/01/02 10:54:02;;;;;;;5.70;2.37;;;5.60;99.90;;;;;;4982207;28;20569;-64
2024/01/02 10:56:39;;;;;;;2.87;2.50;;;5.60;99.90;;;;;;4982338;28;21022;-64
2024/01/02 10:59:20;;;;;;;3.87;2.53;;;5.60;99.90;;;;;;4982073;28;20496;-64
2024/01/02 11:01:52;;;;;;;3.33;2.60;;;5.60;99.90;;;;;;4982446;28;20573;-64
2024/01/02 11:04:32;;;;;;;5.37;2.40;;;5.70;99.90;;;;;;4982168;28;20502;-64
2024/01/02 11:07:05;;;;;;;3.03;2.53;;;5.70;99.90;;;;;;4982222;28;20590;-65
2024/01/02 11:09:42;;;;;;;3.07;2.40;;;5.70;99.90;;;;;;4981663;28;20504;-64
2024/01/02 11:12:13;;;;;;;4.43;2.40;;;5.70;99.90;;;;;;4981486;28;20892;-64
2024/01/02 11:14:45;;;;;;;5.13;2.80;;;5.70;99.90;;;;;;4982766;28;20474;-64
2024/01/02 11:17:15;;;;;;;2.50;2.40;;;5.70;99.90;;;;;;4982397;28;20501;-64
2024/01/02 11:19:52;;;;;;;3.00;2.33;;;5.70;99.90;;;;;;4980839;28;20483;-64
2024/01/02 11:22:35;;;;;;;2.73;2.30;;;5.70;99.90;;;;;;4981158;28;20490;-65
2024/01/02 11:25:05;;;;;;;2.30;2.10;;;5.70;99.90;;;;;;4980934;28;20484;-64
2024/01/02 11:27:36;;;;;;;2.37;2.13;;;5.70;99.90;;;;;;4980470;28;20497;-65
2024/01/02 11:30:08;;;;;;;2.57;2.37;;;5.70;99.90;;;;;;4981940;28;20510;-64
2024/01/02 11:32:47;;;;;;;2.20;2.00;;;5.70;99.90;;;;;;4981728;28;20502;-64
2024/01/02 11:35:17;;;;;;;2.60;2.40;;;5.80;99.90;;;;;;4981749;28;20560;-64
2024/01/02 11:37:58;;;;;;;2.40;2.20;;;5.80;99.90;;;;;;4981170;28;20525;-64
2024/01/02 11:40:32;;;;;;;2.30;2.10;;;5.80;99.90;;;;;;4980259;28;20470;-64
2024/01/02 11:43:12;;;;;;;3.27;2.20;;;5.80;99.90;;;;;;4976901;28;20473;-64
2024/01/02 11:45:40;;;;;;;2.53;2.33;;;5.80;99.90;;;;;;4979113;28;20505;-64
2024/01/02 11:48:18;;;;;;;4.10;2.30;;;5.80;99.90;;;;;;4981896;28;20565;-64
2024/01/02 11:50:52;;;;;;;2.90;2.30;;;5.90;99.90;;;;;;4982326;28;20476;-64
2024/01/02 11:53:36;;;;;;;2.53;2.20;;;5.90;99.90;;;;;;4980923;28;20482;-65
2024/01/02 11:56:07;;;;;;;2.50;2.30;;;5.90;99.90;;;;;;4961695;28;20559;-64
2024/01/02 11:58:44;;;;;;;3.03;2.20;;;5.90;99.90;;;;;;4956574;28;21055;-64
2024/01/02 12:01:19;;;;;;;2.50;2.33;;;5.90;99.90;;;;;;4952716;28;20497;-64
2024/01/02 12:03:59;;;;;;;2.43;1.87;;;6.00;99.90;;;;;;4960727;28;20569;-65
2024/01/02 12:06:35;;;;;;;1.83;1.70;;;6.00;99.90;;;;;;4960911;28;20512;-65
2024/01/02 12:09:10;;;;;;;2.10;2.00;;;6.00;99.90;;;;;;4960799;28;20576;-65
2024/01/02 12:11:44;;;;;;;2.20;2.00;;;6.00;99.90;;;;;;4959469;28;20469;-66
2024/01/02 12:14:24;;;;;;;1.97;1.87;;;6.00;99.90;;;;;;4969963;28;21078;-64
2024/01/02 12:16:53;;;;;;;1.73;1.60;;;6.00;99.90;;;;;;4968738;28;20536;-65
2024/01/02 12:19:23;;;;;;;1.73;1.63;;;6.00;99.90;;;;;;4969421;28;20495;-65
2024/01/02 12:21:55;;;;;;;2.20;1.90;;;6.00;99.90;;;;;;4960230;28;20584;-65
2024/01/02 12:24:24;;;;;;;1.60;1.50;;;6.00;99.90;;;;;;4970116;28;20531;-65
2024/01/02 12:26:54;;;;;;;1.77;1.67;;;6.00;99.90;;;;;;4965988;28;20918;-65
2024/01/02 12:29:35;;;;;;;1.50;1.40;;;6.00;99.90;;;;;;4968377;28;20580;-65
2024/01/02 12:32:12;;;;;;;1.40;1.30;;;6.00;99.90;;;;;;4969014;28;20480;-65
2024/01/02 12:34:49;;;;;;;1.53;1.43;;;6.00;99.90;;;;;;4966577;28;20473;-65
2024/01/02 12:37:27;;;;;;;1.70;1.30;;;6.00;99.90;;;;;;4964403;28;21053;-64
2024/01/02 12:40:00;;;;;;;1.67;1.57;;;6.00;99.90;;;;;;4959464;28;20491;-64
2024/01/02 12:42:32;;;;;;;1.40;1.30;;;6.00;99.90;;;;;;4967928;28;20524;-64
2024/01/02 12:45:03;;;;;;;1.50;1.40;;;6.00;99.90;;;;;;4970682;28;20921;-64
2024/01/02 12:47:36;;;;;;;1.90;1.30;;;6.00;99.90;;;;;;4964539;28;20572;-64
2024/01/02 12:50:08;;;;;;;1.50;1.40;;;6.00;99.90;;;;;;4963400;28;20588;-64
2024/01/02 12:52:43;;;;;;;2.40;1.40;;;6.00;99.90;;;;;;4964946;28;20559;-64
2024/01/02 12:55:14;;;;;;;1.40;1.30;;;6.00;99.90;;;;;;4963722;28;20837;-64
2024/01/02 12:57:43;;;;;;;1.43;1.30;;;6.00;99.90;;;;;;4964381;28;20525;-65
2024/01/02 13:00:16;;;;;;;1.73;1.20;;;6.00;99.90;;;;;;4967278;28;20483;-64
2024/01/02 13:02:46;;;;;;;1.40;1.20;;;6.00;99.90;;;;;;4959953;28;20505;-65
2024/01/02 13:05:15;;;;;;;1.30;1.20;;;6.00;99.90;;;;;;4956824;28;20479;-64
2024/01/02 13:07:43;;;;;;;1.10;1.00;;;6.10;99.90;;;;;;4960753;28;20528;-65
2024/01/02 13:10:11;;;;;;;1.20;1.10;;;6.00;99.90;;;;;;4960669;28;20595;-64
2024/01/02 13:12:40;;;;;;;1.20;1.20;;;6.00;99.90;;;;;;4960084;28;20473;-64